Time;durP1;ratioP1;P1;durP2;ratioP2;P2;SDS_P1;SDS_P2;PMS_P1;PMS_P2;Temp;Humidity;BMP_temperature;BMP_pressure;BME280_temperature;BME280_humidity;BME280_pressure;Samples;Min_cycle;Max_cycle;Signal;HPM_P1;HPM_P2
2022/01/09 00:01:50;;;;;;;2.25;1.02;;;;;;;3.37;91.87;98582.59;10357092;28;20057;-83
2022/01/09 00:06:51;;;;;;;1.90;1.00;;;;;;;3.39;92.57;98577.47;10407430;28;20061;-82
2022/01/09 00:11:51;;;;;;;2.47;1.10;;;;;;;3.32;92.44;98565.13;10374223;28;20030;-82
2022/01/09 00:16:52;;;;;;;4.50;3.00;;;;;;;3.43;92.70;98568.16;10375250;28;20072;-82
2022/01/09 00:21:52;;;;;;;5.28;3.10;;;;;;;3.51;92.81;98572.78;10372231;28;20030;-81
2022/01/09 00:26:53;;;;;;;6.05;2.88;;;;;;;3.71;93.07;98569.22;10373317;28;20136;-81
2022/01/09 00:31:53;;;;;;;4.78;3.47;;;;;;;3.71;92.98;98570.06;10373204;28;20041;-82
2022/01/09 00:36:54;;;;;;;5.75;2.90;;;;;;;3.69;93.44;98584.66;10371196;28;20050;-82
2022/01/09 00:41:54;;;;;;;7.50;3.92;;;;;;;3.73;93.42;98591.72;10388489;28;20565;-82
2022/01/09 00:46:56;;;;;;;7.55;4.68;;;;;;;3.82;93.02;98604.13;10373389;28;20037;-82
2022/01/09 00:51:57;;;;;;;;;;;;;;;3.92;93.18;98629.53;10371387;28;20105;-81
2022/01/09 00:56:57;;;;;;;12.73;7.97;;;;;;;4.03;93.46;98650.66;10370746;28;20007;-82
2022/01/09 01:01:58;;;;;;;10.43;6.90;;;;;;;4.06;93.11;98679.25;10338066;28;20492;-83
2022/01/09 01:06:58;;;;;;;8.57;4.78;;;;;;;4.01;92.01;98710.97;10369169;28;20121;-81
2022/01/09 01:11:59;;;;;;;8.10;3.25;;;;;;;3.81;90.60;98706.75;10369383;28;20033;-80
2022/01/09 01:17:00;;;;;;;6.28;2.17;;;;;;;3.61;89.76;98752.53;10366583;28;20460;-80
2022/01/09 01:22:03;;;;;;;4.75;1.92;;;;;;;3.52;90.70;98771.13;10354472;28;20022;-82
2022/01/09 01:27:04;;;;;;;7.15;2.50;;;;;;;3.44;90.82;98808.69;10361649;28;20109;-83
2022/01/09 01:32:05;;;;;;;8.52;1.75;;;;;;;3.31;90.85;98803.81;10350744;28;20021;-81
2022/01/09 01:37:08;;;;;;;17.08;4.70;;;;;;;3.20;90.70;98849.91;10370828;28;20046;-81
2022/01/09 01:42:08;;;;;;;13.85;5.57;;;;;;;3.16;90.75;98861.78;10339477;28;20452;-80
2022/01/09 01:47:09;;;;;;;27.85;6.65;;;;;;;3.12;91.30;98865.06;10378741;28;20120;-79
2022/01/09 01:52:09;;;;;;;30.40;6.85;;;;;;;3.15;91.97;98895.34;10386014;28;20092;-78
2022/01/09 01:57:10;;;;;;;24.08;7.45;;;;;;;3.17;91.53;98922.16;10379821;28;20077;-79
2022/01/09 02:02:10;;;;;;;18.80;6.18;;;;;;;3.20;92.09;98918.00;10376556;28;20065;-79
2022/01/09 02:07:11;;;;;;;26.90;6.05;;;;;;;3.24;91.32;98939.72;10362246;28;20026;-79
2022/01/09 02:12:11;;;;;;;17.27;6.72;;;;;;;3.15;91.33;98957.38;10360733;28;20413;-79
2022/01/09 02:17:16;;;;;;;25.02;7.07;;;;;;;3.20;91.20;98969.69;10377323;28;20037;-78
2022/01/09 02:22:16;;;;;;;28.45;10.18;;;;;;;3.22;91.59;98993.06;10388737;28;20116;-79
2022/01/09 02:27:17;;;;;;;22.40;6.03;;;;;;;3.19;90.79;99011.88;10379550;28;20468;-78
2022/01/09 02:32:18;;;;;;;22.48;8.35;;;;;;;3.18;90.85;99015.28;10357162;28;20061;-79
2022/01/09 02:37:18;;;;;;;34.45;6.35;;;;;;;3.19;90.77;99023.94;10377772;28;20049;-79
2022/01/09 02:42:21;;;;;;;30.67;8.38;;;;;;;3.16;91.08;99029.81;10360288;28;20037;-79
2022/01/09 02:47:21;;;;;;;26.33;10.20;;;;;;;3.22;90.83;99044.75;10376238;28;20025;-78
2022/01/09 02:52:49;;;;;;;29.77;11.75;;;;;;;3.21;91.49;99053.34;10375009;28;20038;-78
2022/01/09 02:57:44;;;;;;;44.95;13.45;;;;;;;3.22;92.45;99074.06;10373953;28;20054;-81
2022/01/09 03:02:45;;;;;;;37.95;12.77;;;;;;;3.30;92.82;99078.72;10359232;28;20065;-79
2022/01/09 03:07:45;;;;;;;41.88;14.57;;;;;;;3.42;92.64;99086.19;10376550;28;20485;-80
2022/01/09 03:12:47;;;;;;;42.28;14.50;;;;;;;3.45;92.97;99113.09;10358920;28;20030;-79
2022/01/09 03:17:47;;;;;;;32.50;11.33;;;;;;;3.52;92.96;99125.50;10374764;28;20045;-79
2022/01/09 03:22:48;;;;;;;44.05;14.32;;;;;;;3.61;92.81;99122.47;10381982;28;20117;-79
2022/01/09 03:27:49;;;;;;;40.42;12.10;;;;;;;3.67;91.92;99140.88;10359595;28;20422;-79
2022/01/09 03:32:51;;;;;;;30.90;9.17;;;;;;;3.73;90.90;99152.34;10357249;28;20136;-79
2022/01/09 03:37:51;;;;;;;27.10;7.03;;;;;;;3.66;90.27;99154.63;10375283;28;20092;-79
2022/01/09 03:42:52;;;;;;;21.77;9.70;;;;;;;3.66;89.65;99188.25;10375024;28;20046;-80
2022/01/09 03:47:53;;;;;;;27.73;6.90;;;;;;;3.63;89.68;99189.81;10375333;28;20065;-80
2022/01/09 03:52:53;;;;;;;33.13;7.07;;;;;;;3.67;88.86;99204.66;10358121;28;20034;-81
2022/01/09 03:57:54;;;;;;;48.65;9.65;;;;;;;3.63;88.55;99205.31;10339675;28;20084;-81
2022/01/09 04:02:54;;;;;;;42.40;10.40;;;;;;;3.63;88.77;99224.34;10357005;28;20436;-80
2022/01/09 04:07:55;;;;;;;26.45;8.88;;;;;;;3.67;87.96;99243.47;10373788;28;20124;-81
2022/01/09 04:12:59;;;;;;;32.45;6.95;;;;;;;3.58;88.23;99255.94;10373392;28;20030;-81
2022/01/09 04:18:01;;;;;;;46.83;12.23;;;;;;;3.57;87.33;99273.19;10375616;28;20076;-80
2022/01/09 04:23:02;;;;;;;21.00;7.80;;;;;;;3.50;87.97;99282.31;10371064;28;20037;-81
2022/01/09 04:28:02;;;;;;;21.45;8.50;;;;;;;3.47;87.44;99308.03;10374189;28;20073;-81
2022/01/09 04:33:03;;;;;;;30.08;7.20;;;;;;;3.48;87.44;99324.47;10356086;28;20456;-81
2022/01/09 04:38:04;;;;;;;19.50;5.72;;;;;;;3.45;87.81;99334.66;10372232;28;20073;-80
2022/01/09 04:43:07;;;;;;;16.10;5.97;;;;;;;3.42;87.10;99334.50;10340196;28;20030;-81
2022/01/09 04:48:10;;;;;;;15.25;6.03;;;;;;;3.42;86.70;99347.44;10337192;28;20488;-81
2022/01/09 04:53:10;;;;;;;18.27;4.40;;;;;;;3.33;86.94;99369.41;10372677;28;20445;-81
2022/01/09 04:58:11;;;;;;;18.48;5.45;;;;;;;3.30;86.83;99373.53;10339195;28;20030;-81
2022/01/09 05:03:19;;;;;;;23.92;6.00;;;;;;;3.28;86.63;99398.41;10371760;28;20069;-80
2022/01/09 05:08:20;;;;;;;19.63;4.88;;;;;;;3.16;86.61;99416.75;10374096;28;20533;-80
2022/01/09 05:13:21;;;;;;;17.95;5.90;;;;;;;3.15;86.10;99423.59;10369898;28;20053;-81
2022/01/09 05:18:22;;;;;;;23.08;6.70;;;;;;;3.13;85.53;99439.88;10382602;28;20537;-80
2022/01/09 05:23:22;;;;;;;15.25;4.68;;;;;;;3.11;85.42;99444.94;10354414;28;20030;-81
2022/01/09 05:28:23;;;;;;;14.98;5.28;;;;;;;3.08;85.99;99455.09;10353892;28;20062;-81
2022/01/09 05:33:23;;;;;;;41.80;6.50;;;;;;;3.07;85.77;99467.16;10321421;28;20030;-80
2022/01/09 05:38:24;;;;;;;18.77;5.18;;;;;;;3.07;85.58;99474.00;10369644;28;20092;-80
2022/01/09 05:43:25;;;;;;;19.55;7.28;;;;;;;3.13;85.32;99484.69;10322824;28;20038;-81
2022/01/09 05:48:25;;;;;;;16.25;5.50;;;;;;;3.20;85.49;99484.22;10348287;28;20038;-80
2022/01/09 05:53:26;;;;;;;19.05;5.55;;;;;;;3.21;85.64;99500.63;10370054;28;20532;-80
2022/01/09 05:58:26;;;;;;;15.80;5.30;;;;;;;3.19;85.75;99504.84;10369436;28;20069;-78
2022/01/09 06:03:27;;;;;;;25.73;6.63;;;;;;;3.18;85.64;99497.88;10343221;28;20068;-79
2022/01/09 06:08:27;;;;;;;18.50;6.25;;;;;;;3.22;85.65;99520.53;10368030;28;20030;-80
2022/01/09 06:13:28;;;;;;;23.52;5.93;;;;;;;3.22;84.80;99515.34;10367064;28;20057;-81
2022/01/09 06:18:28;;;;;;;15.75;5.40;;;;;;;3.08;85.24;99540.41;10332849;28;20093;-83
2022/01/09 06:23:29;;;;;;;16.98;5.28;;;;;;;2.88;85.50;99552.22;10351626;28;20034;-83
2022/01/09 06:28:30;;;;;;;19.60;5.68;;;;;;;2.78;85.46;99545.63;10351489;28;20018;-83
2022/01/09 06:33:31;;;;;;;23.80;7.30;;;;;;;2.60;85.59;99554.09;10367630;28;20022;-82
2022/01/09 06:38:31;;;;;;;23.45;6.43;;;;;;;2.53;85.99;99559.69;10374837;28;20033;-82
2022/01/09 06:43:32;;;;;;;16.05;7.10;;;;;;;2.41;86.47;99575.38;10376480;28;20080;-83
2022/01/09 06:48:32;;;;;;;15.30;5.60;;;;;;;2.29;87.28;99585.84;10385623;28;20029;-82
2022/01/09 06:53:33;;;;;;;16.17;4.90;;;;;;;2.23;87.24;99598.38;10362208;28;20037;-81
2022/01/09 06:58:36;;;;;;;9.13;4.35;;;;;;;2.41;87.33;99613.22;10368309;28;20058;-80
2022/01/09 07:03:37;;;;;;;19.70;5.80;;;;;;;2.51;86.22;99622.41;10357284;28;20412;-84
2022/01/09 07:08:37;;;;;;;13.68;5.60;;;;;;;2.47;85.46;99627.41;10356917;28;20061;-83
2022/01/09 07:13:38;;;;;;;12.43;3.65;;;;;;;2.50;85.06;99637.00;10375656;28;20473;-85
2022/01/09 07:18:38;;;;;;;13.45;4.28;;;;;;;2.47;84.92;99654.91;10356423;28;20026;-85
2022/01/09 07:23:39;;;;;;;11.00;4.03;;;;;;;2.34;86.28;99654.16;10374738;28;20465;-81
2022/01/09 07:28:39;;;;;;;15.63;5.28;;;;;;;2.32;86.94;99668.66;10356527;28;20057;-81
2022/01/09 07:33:40;;;;;;;15.75;6.10;;;;;;;2.51;87.63;99687.00;10374192;28;20038;-84
2022/01/09 07:38:40;;;;;;;17.05;5.07;;;;;;;2.61;86.80;99692.78;10375006;28;20555;-85
2022/01/09 07:43:41;;;;;;;11.15;4.18;;;;;;;2.63;86.95;99704.13;10360543;28;20041;-84
2022/01/09 07:48:41;;;;;;;13.00;5.00;;;;;;;2.66;86.89;99694.75;10380177;28;20476;-85
2022/01/09 07:53:42;;;;;;;14.90;5.03;;;;;;;2.63;87.62;99701.53;10357402;28;20122;-86
2022/01/09 07:58:43;;;;;;;10.27;4.05;;;;;;;2.52;87.30;99712.03;10369968;28;20062;-82
2022/01/09 08:03:43;;;;;;;13.05;5.82;;;;;;;2.43;87.67;99727.84;10371388;28;20030;-86
2022/01/09 08:08:44;;;;;;;20.85;7.22;;;;;;;2.42;87.95;99737.28;10370855;28;20064;-82
2022/01/09 08:13:44;;;;;;;10.27;4.05;;;;;;;2.40;87.97;99750.88;10354697;28;20450;-85
2022/01/09 08:18:45;;;;;;;9.95;3.97;;;;;;;2.36;87.81;99752.41;10371407;28;20096;-83
2022/01/09 08:23:50;;;;;;;16.70;3.92;;;;;;;2.43;87.57;99767.47;10372546;28;20064;-82
2022/01/09 08:28:50;;;;;;;17.73;4.57;;;;;;;2.59;86.95;99765.84;10347145;28;20469;-81
2022/01/09 08:33:51;;;;;;;14.75;3.90;;;;;;;2.68;86.04;99775.84;10369696;28;20025;-82
2022/01/09 08:38:51;;;;;;;13.75;4.90;;;;;;;2.64;86.08;99786.00;10372734;28;20540;-82
2022/01/09 08:43:55;;;;;;;9.68;4.78;;;;;;;2.68;85.65;99776.75;10386933;28;20124;-82
2022/01/09 08:48:55;;;;;;;14.05;4.75;;;;;;;2.64;85.61;99788.56;10389547;28;20029;-82
2022/01/09 08:53:57;;;;;;;17.08;4.05;;;;;;;2.63;85.95;99801.41;10395430;28;20036;-83
2022/01/09 08:59:10;;;;;;;16.50;6.15;;;;;;;2.71;86.06;99794.13;10366556;28;20030;-81
2022/01/09 09:04:10;;;;;;;9.73;4.00;;;;;;;2.77;85.80;99805.75;10390568;28;20034;-81
2022/01/09 09:09:11;;;;;;;13.65;5.65;;;;;;;2.86;86.23;99814.88;10385350;28;20457;-81
2022/01/09 09:14:18;;;;;;;23.25;8.18;;;;;;;2.82;86.63;99816.34;10390469;28;20030;-83
2022/01/09 09:19:18;;;;;;;15.77;6.82;;;;;;;2.93;86.39;99824.78;10392291;28;20496;-79
2022/01/09 09:24:18;;;;;;;12.70;6.80;;;;;;;2.99;86.33;99832.00;10369281;28;20064;-80
2022/01/09 09:29:19;;;;;;;17.75;6.50;;;;;;;3.08;86.66;99850.66;10371004;28;20061;-80
2022/01/09 09:34:19;;;;;;;12.40;5.53;;;;;;;3.24;85.15;99849.91;10367561;28;20548;-81
2022/01/09 09:39:20;;;;;;;19.92;6.25;;;;;;;3.59;84.57;99866.66;10336593;28;20484;-81
2022/01/09 09:44:21;;;;;;;14.95;5.43;;;;;;;3.39;84.18;99870.63;10403300;28;20030;-81
2022/01/09 09:49:22;;;;;;;9.15;4.72;;;;;;;3.35;84.37;99872.16;10369807;28;20061;-81
2022/01/09 09:54:25;;;;;;;14.70;7.40;;;;;;;4.15;82.69;99874.16;10338284;28;20045;-81
2022/01/09 09:59:28;;;;;;;11.90;4.90;;;;;;;4.65;79.85;99872.66;10369539;28;20030;-81
2022/01/09 10:04:28;;;;;;;12.60;5.15;;;;;;;5.19;79.42;99885.94;10366791;28;20109;-82
2022/01/09 10:09:29;;;;;;;11.20;5.28;;;;;;;7.64;70.64;99889.94;10367634;28;20535;-78
2022/01/09 10:14:31;;;;;;;9.57;3.55;;;;;;;6.35;73.15;99893.56;10372463;28;20173;-79
2022/01/09 10:19:47;;;;;;;10.27;4.40;;;;;;;4.99;78.34;99896.13;10356763;28;20474;-78
2022/01/09 10:24:47;;;;;;;14.32;5.72;;;;;;;4.59;80.03;99901.69;10375544;28;20076;-80
2022/01/09 10:29:49;;;;;;;21.48;7.60;;;;;;;4.81;79.37;99905.50;10356930;28;20367;-79
2022/01/09 10:35:05;;;;;;;6.53;3.60;;;;;;;6.10;75.13;99907.06;10374038;28;20080;-83
2022/01/09 10:40:08;;;;;;;14.75;5.30;;;;;;;5.35;76.79;99918.78;10371105;28;20533;-82
2022/01/09 10:45:22;;;;;;;12.18;5.90;;;;;;;7.13;71.70;99916.31;10360158;28;20030;-83
2022/01/09 10:50:30;;;;;;;12.93;5.57;;;;;;;7.26;70.01;99935.09;10373390;28;20114;-83
2022/01/09 10:55:31;;;;;;;12.23;4.65;;;;;;;6.50;72.76;99934.13;10374676;28;20496;-87
2022/01/09 11:00:33;;;;;;;13.00;5.43;;;;;;;5.24;76.01;99948.47;10378568;28;20041;-87
2022/01/09 11:05:35;;;;;;;18.45;6.78;;;;;;;4.63;78.74;99955.50;10347629;28;20042;-85
2022/01/09 11:10:36;;;;;;;10.25;5.43;;;;;;;4.52;79.89;99956.56;10357542;28;20481;-82
2022/01/09 11:16:32;;;;;;;18.08;5.28;;;;;;;4.92;79.39;99956.25;10357639;28;20072;-81
2022/01/09 11:21:00;;;;;;;15.07;4.70;;;;;;;5.91;77.07;99959.72;10352504;28;20073;-81
2022/01/09 11:26:01;;;;;;;17.65;6.15;;;;;;;5.80;76.46;99964.38;10356421;28;20100;-81
2022/01/09 11:31:05;;;;;;;11.93;5.30;;;;;;;6.17;75.54;99971.50;10400424;28;20026;-80
2022/01/09 11:36:21;;;;;;;15.25;6.07;;;;;;;5.81;75.97;99981.75;10389934;28;20033;-81
2022/01/09 11:41:26;;;;;;;10.15;5.20;;;;;;;5.25;77.76;99986.56;10414245;28;20146;-80
2022/01/09 11:46:28;;;;;;;13.43;5.47;;;;;;;4.76;79.33;99993.38;10382270;28;20486;-80
2022/01/09 11:51:29;;;;;;;22.85;6.45;;;;;;;4.40;81.05;100003.41;10371133;28;20030;-82
2022/01/09 11:56:45;;;;;;;17.08;7.05;;;;;;;4.08;82.61;100005.00;10372040;28;20034;-82
2022/01/09 12:01:47;;;;;;;11.00;4.43;;;;;;;3.82;82.82;100006.91;10404907;28;20025;-81
2022/01/09 12:06:48;;;;;;;15.63;6.10;;;;;;;3.53;85.18;100011.19;10387200;28;20090;-82
2022/01/09 12:12:05;;;;;;;19.67;6.22;;;;;;;3.23;86.32;100014.53;10391705;28;20061;-80
2022/01/09 12:17:06;;;;;;;14.65;6.82;;;;;;;3.32;87.66;100014.22;10366262;28;20041;-80
2022/01/09 12:22:06;;;;;;;14.77;8.88;;;;;;;3.49;87.80;100014.38;10370840;28;20041;-80
2022/01/09 12:27:48;;;;;;;19.67;8.07;;;;;;;3.46;87.80;100019.38;10371578;28;20121;-82
2022/01/09 12:32:48;;;;;;;15.35;6.82;;;;;;;3.18;87.28;100017.63;10372188;28;20473;-82
2022/01/09 12:37:52;;;;;;;10.75;5.50;;;;;;;2.94;87.49;100012.69;10369848;28;20085;-82
2022/01/09 12:42:54;;;;;;;15.25;5.40;;;;;;;2.90;87.48;100014.16;10356027;28;20034;-81
2022/01/09 12:47:55;;;;;;;10.05;5.63;;;;;;;3.02;87.70;100018.31;10370416;28;20030;-82
2022/01/09 12:53:20;;;;;;;15.20;6.60;;;;;;;4.48;84.38;100012.53;10370167;28;20034;-82
2022/01/09 12:58:30;;;;;;;9.05;4.22;;;;;;;5.71;78.91;100021.91;10371623;28;20536;-83
2022/01/09 13:03:31;;;;;;;9.60;4.40;;;;;;;6.58;76.77;100021.19;10369558;28;20029;-82
2022/01/09 13:08:32;;;;;;;9.98;4.70;;;;;;;6.72;75.42;100027.09;10370863;28;20033;-83
2022/01/09 13:13:33;;;;;;;14.13;6.78;;;;;;;6.21;75.61;100030.63;10371731;28;20073;-82
2022/01/09 13:18:41;;;;;;;9.48;4.70;;;;;;;5.47;79.46;100031.84;10371993;28;20474;-82
2022/01/09 13:24:08;;;;;;;14.02;5.82;;;;;;;5.08;80.06;100041.00;10371739;28;20022;-82
2022/01/09 13:29:10;;;;;;;15.18;6.97;;;;;;;4.25;81.98;100055.19;10372143;28;20034;-82
2022/01/09 13:34:12;;;;;;;24.20;6.93;;;;;;;4.00;83.10;100058.91;10370016;28;20022;-82
2022/01/09 13:39:20;;;;;;;;;;;;;;;4.09;83.70;100056.00;10369303;28;20379;-82
2022/01/09 13:44:37;;;;;;;17.63;6.18;;;;;;;4.23;83.44;100062.00;10369481;28;19922;-83
2022/01/09 13:49:59;;;;;;;18.27;7.25;;;;;;;4.46;82.75;100075.44;10370416;28;20056;-82
2022/01/09 13:55:05;;;;;;;19.88;6.70;;;;;;;4.70;81.80;100081.19;10369882;28;20045;-82
2022/01/09 14:00:06;;;;;;;24.70;6.95;;;;;;;5.19;81.40;100072.72;10371055;28;20054;-82
2022/01/09 14:05:10;;;;;;;14.43;6.00;;;;;;;6.69;77.33;100073.75;10369632;28;20037;-82
2022/01/09 14:10:16;;;;;;;26.05;8.73;;;;;;;7.09;73.60;100070.53;10371902;28;20029;-82
2022/01/09 14:15:20;;;;;;;13.50;4.60;;;;;;;6.71;73.00;100083.38;10369338;28;20029;-82
2022/01/09 14:20:29;;;;;;;16.40;7.63;;;;;;;5.67;75.47;100092.63;10369700;28;20033;-82
2022/01/09 14:25:34;;;;;;;19.23;6.63;;;;;;;4.74;79.18;100102.97;10369397;28;20452;-85
2022/01/09 14:30:45;;;;;;;21.95;10.13;;;;;;;4.26;81.15;100101.03;10389457;28;20381;-79
2022/01/09 14:35:53;;;;;;;11.50;5.75;;;;;;;4.09;81.83;100118.16;10327873;28;20124;-78
2022/01/09 14:40:55;;;;;;;15.40;6.05;;;;;;;3.95;82.01;100125.03;10304045;28;20125;-78
2022/01/09 14:45:56;;;;;;;20.73;5.70;;;;;;;3.68;81.95;100122.50;10370087;28;20374;-79
2022/01/09 14:50:57;;;;;;;16.77;5.93;;;;;;;3.43;83.33;100131.31;10351505;28;20077;-80
2022/01/09 14:55:57;;;;;;;17.92;6.60;;;;;;;3.55;83.51;100141.56;10353615;28;20032;-79
2022/01/09 15:00:58;;;;;;;17.25;7.22;;;;;;;3.65;82.58;100143.94;10374391;28;20456;-79
2022/01/09 15:05:58;;;;;;;18.13;6.25;;;;;;;3.49;82.30;100146.34;10343211;28;20108;-79
2022/01/09 15:10:59;;;;;;;31.55;15.07;;;;;;;3.25;83.59;100153.38;10343744;28;20429;-78
2022/01/09 15:16:01;;;;;;;18.30;6.95;;;;;;;3.08;84.04;100168.69;10372338;28;20144;-79
2022/01/09 15:21:05;;;;;;;15.82;7.28;;;;;;;2.95;84.35;100174.75;10359640;28;20037;-80
2022/01/09 15:26:14;;;;;;;31.80;7.90;;;;;;;2.78;84.89;100195.19;10316317;28;20480;-78
2022/01/09 15:31:15;;;;;;;21.10;7.82;;;;;;;2.55;85.54;100191.00;10345020;28;20462;-79
2022/01/09 15:36:18;;;;;;;15.07;6.77;;;;;;;2.44;85.64;100207.44;10388053;28;20052;-79
2022/01/09 15:41:21;;;;;;;15.52;6.85;;;;;;;2.27;87.09;100214.03;10374496;28;20647;-79
2022/01/09 15:46:23;;;;;;;16.20;7.85;;;;;;;2.32;87.34;100221.28;10371169;28;20029;-78
2022/01/09 15:51:29;;;;;;;20.77;9.27;;;;;;;2.33;86.78;100227.38;10334308;28;20040;-79
2022/01/09 15:56:30;;;;;;;21.85;7.75;;;;;;;2.14;87.35;100226.06;10354519;28;20042;-78
2022/01/09 16:01:35;;;;;;;19.77;7.50;;;;;;;1.94;87.40;100237.53;10361223;28;20030;-77
2022/01/09 16:06:39;;;;;;;12.70;6.93;;;;;;;1.70;87.67;100245.28;10359736;28;20038;-77
2022/01/09 16:11:40;;;;;;;15.30;7.40;;;;;;;1.44;87.71;100253.72;10351941;28;20057;-79
2022/01/09 16:16:41;;;;;;;16.02;8.35;;;;;;;1.22;88.67;100258.94;10371090;28;20556;-78
2022/01/09 16:21:43;;;;;;;26.75;11.65;;;;;;;1.06;88.94;100268.06;10370063;28;20555;-76
2022/01/09 16:26:46;;;;;;;18.50;7.82;;;;;;;0.97;89.36;100267.38;10369632;28;20056;-78
2022/01/09 16:31:48;;;;;;;38.08;9.30;;;;;;;0.83;89.42;100277.53;10337791;28;20049;-78
2022/01/09 16:36:48;;;;;;;23.02;8.80;;;;;;;0.69;90.28;100273.91;10371333;28;20038;-78
2022/01/09 16:41:50;;;;;;;25.75;9.38;;;;;;;0.52;90.36;100284.56;10354623;28;20062;-78
2022/01/09 16:46:52;;;;;;;36.47;17.95;;;;;;;0.44;90.56;100296.81;10378093;28;20036;-78
2022/01/09 16:51:58;;;;;;;33.33;9.15;;;;;;;0.36;91.10;100296.22;10335052;28;20131;-77
2022/01/09 16:57:05;;;;;;;23.35;9.55;;;;;;;0.34;91.17;100304.59;10338539;28;20049;-78
2022/01/09 17:02:10;;;;;;;29.50;11.70;;;;;;;0.29;91.59;100309.41;10350721;28;20030;-77
2022/01/09 17:07:13;;;;;;;22.73;12.68;;;;;;;0.36;92.10;100314.25;10341647;28;20075;-76
2022/01/09 17:12:19;;;;;;;20.20;10.13;;;;;;;0.16;91.83;100320.38;10367695;28;20026;-78
2022/01/09 17:17:21;;;;;;;46.88;11.48;;;;;;;0.21;92.24;100324.22;10366192;28;20037;-78
2022/01/09 17:22:23;;;;;;;20.52;8.30;;;;;;;-0.01;91.62;100337.03;10364307;28;20018;-78
2022/01/09 17:27:28;;;;;;;29.55;9.07;;;;;;;-0.19;91.82;100352.75;10350099;28;20079;-77
2022/01/09 17:32:29;;;;;;;18.17;9.20;;;;;;;-0.26;91.76;100360.75;10364376;28;20129;-75
2022/01/09 17:37:31;;;;;;;23.38;9.23;;;;;;;-0.39;91.86;100363.97;10367390;28;20382;-77
2022/01/09 17:42:32;;;;;;;14.43;9.83;;;;;;;-0.50;92.03;100378.50;10352018;28;20104;-78
2022/01/09 17:47:36;;;;;;;18.73;8.83;;;;;;;-0.54;92.62;100381.59;10368284;28;20506;-79
2022/01/09 17:52:44;;;;;;;18.00;9.63;;;;;;;-0.71;92.70;100390.44;10367279;28;20038;-79
2022/01/09 17:57:46;;;;;;;19.02;9.20;;;;;;;-0.62;92.35;100406.63;10369590;28;20072;-79
2022/01/09 18:02:48;;;;;;;29.93;11.93;;;;;;;-0.53;92.86;100400.47;10368675;28;20021;-78
2022/01/09 18:07:50;;;;;;;19.85;9.75;;;;;;;-0.61;93.31;100408.44;10361607;28;20368;-84
2022/01/09 18:12:52;;;;;;;19.77;8.05;;;;;;;-0.82;92.54;100417.81;10356978;28;20026;-80
2022/01/09 18:17:52;;;;;;;21.98;12.00;;;;;;;-0.68;92.93;100420.66;10374310;28;20033;-80
2022/01/09 18:22:53;;;;;;;29.05;10.23;;;;;;;-0.80;92.78;100429.09;10331459;28;20053;-80
2022/01/09 18:27:53;;;;;;;17.65;9.48;;;;;;;-0.79;92.99;100448.91;10351187;28;20492;-81
2022/01/09 18:32:54;;;;;;;27.25;9.00;;;;;;;-0.99;93.06;100451.41;10369482;28;20036;-80
2022/01/09 18:37:55;;;;;;;18.20;9.25;;;;;;;-1.16;92.91;100468.81;10371358;28;20099;-79
2022/01/09 18:42:55;;;;;;;20.27;10.70;;;;;;;-1.27;92.65;100480.69;10357344;28;20140;-77
2022/01/09 18:47:56;;;;;;;28.30;11.70;;;;;;;-1.36;92.71;100488.50;10354164;28;20029;-78
2022/01/09 18:52:56;;;;;;;24.67;10.57;;;;;;;-1.41;92.76;100489.75;10374358;28;20434;-78
2022/01/09 18:57:57;;;;;;;25.90;12.02;;;;;;;-1.38;93.75;100500.31;10374624;28;20077;-78
2022/01/09 19:02:58;;;;;;;19.50;10.77;;;;;;;-1.49;93.78;100509.59;10361479;28;20022;-78
2022/01/09 19:07:58;;;;;;;24.83;11.77;;;;;;;-1.61;93.84;100517.88;10339325;28;20113;-79
2022/01/09 19:12:59;;;;;;;21.77;11.85;;;;;;;-1.53;93.44;100511.75;10373308;28;20036;-79
2022/01/09 19:17:59;;;;;;;27.50;12.52;;;;;;;-1.48;93.61;100524.22;10369903;28;20113;-78
2022/01/09 19:23:02;;;;;;;25.63;13.25;;;;;;;-1.44;94.02;100535.69;10355783;28;20393;-78
2022/01/09 19:28:02;;;;;;;;;;;;;;;-1.52;93.44;100541.81;10356892;28;20108;-78
2022/01/09 19:33:03;;;;;;;26.98;12.75;;;;;;;-1.65;93.90;100556.09;10373596;28;20456;-77
2022/01/09 19:38:04;;;;;;;22.90;11.13;;;;;;;-1.72;93.54;100568.19;10371406;28;20053;-78
2022/01/09 19:43:06;;;;;;;26.50;12.50;;;;;;;-1.84;94.29;100581.69;10357413;28;20116;-78
2022/01/09 19:48:09;;;;;;;20.52;12.82;;;;;;;-1.85;93.55;100587.59;10369303;28;20046;-77
2022/01/09 19:53:10;;;;;;;32.22;16.02;;;;;;;-1.71;93.68;100595.66;10374575;28;20100;-80
2022/01/09 19:58:12;;;;;;;25.55;13.80;;;;;;;-1.61;93.75;100606.00;10357013;28;20101;-78
2022/01/09 20:03:12;;;;;;;;;;;;;;;-1.62;94.42;100604.22;10370792;28;20031;-78
2022/01/09 20:08:12;;;;;;;23.83;13.13;;;;;;;-1.73;94.28;100610.94;10363780;28;19913;-79
2022/01/09 20:13:16;;;;;;;23.10;13.80;;;;;;;-1.74;93.83;100615.91;10366371;28;20654;-77
2022/01/09 20:18:16;;;;;;;27.85;14.18;;;;;;;-1.65;93.76;100624.47;10351008;28;20030;-78
2022/01/09 20:23:18;;;;;;;33.72;14.13;;;;;;;-1.69;94.62;100612.09;10373214;28;20497;-78
2022/01/09 20:28:19;;;;;;;;;;;;;;;-1.83;94.62;100624.56;10370793;28;20022;-78
2022/01/09 20:33:20;;;;;;;18.63;11.43;;;;;;;-1.95;94.62;100633.69;10370806;28;19921;-78
2022/01/09 20:38:20;;;;;;;36.93;17.37;;;;;;;-1.95;94.10;100625.97;10350610;28;20042;-78
2022/01/09 20:43:21;;;;;;;22.90;14.67;;;;;;;-2.15;93.95;100645.53;10362379;28;20034;-78
2022/01/09 20:48:24;;;;;;;32.45;14.32;;;;;;;-2.32;94.33;100656.75;10370910;28;20036;-78
2022/01/09 20:53:24;;;;;;;32.97;16.75;;;;;;;-2.34;94.16;100671.09;10370104;28;20025;-79
2022/01/09 20:58:25;;;;;;;33.57;16.17;;;;;;;-2.36;94.52;100670.94;10371702;28;20034;-79
2022/01/09 21:03:26;;;;;;;37.17;17.63;;;;;;;-2.43;94.50;100685.59;10373856;28;20446;-78
2022/01/09 21:08:27;;;;;;;31.03;16.03;;;;;;;-2.39;94.37;100685.13;10372997;28;20025;-78
2022/01/09 21:13:28;;;;;;;43.92;21.67;;;;;;;-2.17;94.24;100700.91;10373706;28;20026;-78
2022/01/09 21:18:30;;;;;;;35.40;19.45;;;;;;;-2.14;94.85;100701.19;10373333;28;20489;-78
2022/01/09 21:23:31;;;;;;;53.92;20.58;;;;;;;-2.15;94.29;100713.88;10338692;28;20047;-78
2022/01/09 21:28:31;;;;;;;39.00;17.77;;;;;;;-2.39;94.82;100716.78;10349661;28;20026;-78
2022/01/09 21:33:32;;;;;;;35.23;19.30;;;;;;;-2.44;94.25;100722.22;10371237;28;20455;-78
2022/01/09 21:38:32;;;;;;;36.63;20.30;;;;;;;-2.37;94.91;100728.09;10354509;28;20088;-78
2022/01/09 21:43:34;;;;;;;47.78;23.58;;;;;;;-2.39;94.63;100738.97;10371465;28;20033;-78
2022/01/09 21:48:34;;;;;;;35.57;22.47;;;;;;;-2.31;95.10;100744.81;10370220;28;20474;-78
2022/01/09 21:53:35;;;;;;;44.73;22.77;;;;;;;-2.36;94.38;100752.97;10373834;28;20109;-78
2022/01/09 21:58:35;;;;;;;46.70;26.38;;;;;;;-1.99;95.18;100758.19;10353404;28;20072;-79
2022/01/09 22:03:36;;;;;;;54.15;23.70;;;;;;;-2.04;95.17;100772.25;10369888;28;20367;-78
2022/01/09 22:08:36;;;;;;;36.30;21.57;;;;;;;-2.27;95.14;100781.16;10378953;28;20535;-78
2022/01/09 22:13:37;;;;;;;60.83;28.83;;;;;;;-2.29;94.99;100792.94;10378025;28;20124;-78
2022/01/09 22:18:37;;;;;;;56.13;28.58;;;;;;;-2.17;94.79;100802.59;10377885;28;20388;-78
2022/01/09 22:23:38;;;;;;;51.50;27.00;;;;;;;-2.10;95.18;100802.41;10379007;28;20112;-78
2022/01/09 22:28:38;;;;;;;59.78;30.27;;;;;;;-1.89;95.21;100818.06;10378144;28;20481;-80
2022/01/09 22:33:39;;;;;;;59.38;26.50;;;;;;;-1.98;94.54;100819.00;10377567;28;20112;-78
2022/01/09 22:38:39;;;;;;;45.45;26.15;;;;;;;-2.05;95.02;100819.16;10377697;28;20513;-78
2022/01/09 22:43:42;;;;;;;56.37;28.87;;;;;;;-2.13;95.05;100828.66;10380377;28;20069;-78
2022/01/09 22:48:42;;;;;;;47.47;25.40;;;;;;;-2.49;94.34;100842.22;10377292;28;20393;-78
2022/01/09 22:53:43;;;;;;;47.03;27.07;;;;;;;-2.71;94.75;100852.00;10378993;28;20053;-78
2022/01/09 22:58:43;;;;;;;52.38;27.88;;;;;;;-2.84;94.57;100849.84;10377657;28;20081;-78
2022/01/09 23:03:45;;;;;;;30.73;20.45;;;;;;;-2.91;94.57;100861.16;10379890;28;20056;-78
2022/01/09 23:08:45;;;;;;;;;;;;;;;-2.86;94.07;100865.09;10376597;28;20030;-78
2022/01/09 23:13:46;;;;;;;62.20;31.35;;;;;;;-2.91;94.98;100871.41;10377912;28;19917;-78